Jean-Luc Lefebvre

Olheiro - Red Star
3 Dez 2028
Domingo
Processo

Personalidade

Adaptabilidade (8) Ambição (19) Controvérsia (4) Lealdade (4) Pressão (1) Profissionalismo (8) Espírito Esportivo (1) Temperamento (5)

Perfil

Estilo de Treinamento Democrático
Licença Nacional A
Determinação 7
Gestão de Pessoas 11
Motivação 4
Disciplina 3
Satisfação no Trabalho
100%
Fadiga
0%
Função Olheiro
Salário 19.7K p/s
Contrato 14.03.2029

Desempenho

Comportamento Bom
Eficácia do Treinamento
29%
Desenvolvimento do Jogador
45%
Prevenção de Lesões
55%
Implementação Tática
15%

Eventos Recentes

Participou de uma reunião de recrutamento 14d atrás
Participou de uma reunião de recrutamento 21d atrás
Participou de uma reunião de recrutamento 28d atrás
Participou de uma reunião de recrutamento 35d atrás
Participou de uma reunião de recrutamento 42d atrás
Participou de uma reunião de recrutamento 49d atrás
Participou de uma reunião de recrutamento 56d atrás
Recomendou um alvo de transferência 56d atrás

Monitorando agora

187
Jogador Clube Status Habilidade Confiança Observado Última observação Último voto
Peyton Miller New England Revolution Ativo 98 / 137 40% 1 14.08.2028 -
Fabio Rispoli Como Ativo 118 / 116 40% 1 14.08.2028 -
Diego Gaitán Maipú Ativo 129 / 132 40% 1 10.08.2028 -
Ousmane Coulibaly Stade Malien Ativo 104 / 103 40% 1 10.08.2028 -
Kwesi Sorotu Badori Berekum Chelsea Ativo 94 / 93 40% 1 08.08.2028 -
Djibrine Abakar Stars Jeunes Talents Ativo 58 / 71 40% 1 08.08.2028 -
Igor Tyjon Barrow AFC Ativo 118 / 131 40% 3 07.08.2028 -
Tomás Pozzo Godoy Cruz Ativo 141 / 113 40% 1 07.08.2028 -
Callum Wright Plymouth Argyle Ativo 126 / 110 40% 1 25.07.2028 -
Juan Sebastián Herrera Deportivo La Guaira Ativo 116 / 96 40% 1 22.07.2028 -
Darragh Burns Grimsby Town Ativo 116 / 118 40% 1 22.07.2028 -
Luca Meirelles Kudrivka Ativo 120 / 118 40% 1 20.07.2028 -
Jordan Gibson Cheltenham Town Ativo 118 / 111 40% 1 20.07.2028 -
Jon Eceizabarrena Real Sociedad Ativo 107 / 110 40% 1 19.07.2028 -
Aaron Morley Wycombe Wanderers Ativo 116 / 133 40% 1 19.07.2028 -
Diego Vargas Universidad de Concepcion Ativo 88 / 103 40% 3 18.07.2028 -
Gideon Manaseh Ikorodu City Ativo 84 / 89 40% 3 18.07.2028 -
Caylan Vickers Burton Albion Ativo 113 / 124 40% 1 18.07.2028 -
Fletcher Boyd Accrington Stanley Ativo 106 / 112 40% 1 18.07.2028 -
Jenson Metcalfe Bradford City Ativo 115 / 124 40% 1 16.07.2028 -
Mohamadou Kanté Crawley Town Ativo 132 / 124 40% 1 14.07.2028 -
Gabe Forsyth Colchester United Ativo 110 / 121 40% 1 14.07.2028 -
Leighton Clarkson Blackpool Ativo 135 / 129 40% 1 13.07.2028 -
Adam Phillips Northampton Town Ativo 125 / 120 40% 1 13.07.2028 -
Kyreece Lisbie Colchester United Ativo 117 / 109 40% 1 12.07.2028 -
Chiquinho Leixões Ativo 146 / 139 40% 1 12.07.2028 -
Daouda Coulibaly Stade Malien Ativo 95 / 98 40% 1 11.07.2028 -
Jan Bürger Northampton Town Ativo 116 / 128 40% 1 10.07.2028 -
Atsuki Ito Bolton Wanderers Ativo 140 / 129 40% 2 07.07.2028 -
Josh Benson Rotherham United Ativo 117 / 111 40% 2 05.07.2028 -
Kiani Inge Groningen Ativo 112 / 118 40% 2 04.07.2028 -
Tibe De Vlieger KAA Gent Ativo 109 / 127 40% 1 04.07.2028 -
Reyes Cleary Bromley Ativo 125 / 123 40% 1 04.07.2028 -
Kyle John Port Vale Ativo 114 / 111 40% 1 02.07.2028 -
Dennis Cirkin Queens Park Rangers Ativo 142 / 128 40% 1 28.06.2028 -
Ryan McAidoo Oldham Athletic Ativo 125 / 127 40% 1 28.06.2028 -
Thierry Gale Swindon Town Ativo 120 / 126 40% 1 27.06.2028 -
Flynn Downes Sheffield Wednesday Ativo 144 / 136 40% 1 27.06.2028 -
Arsene Mekila Gazelle Garoua Ativo 77 / 105 40% 5 26.06.2028 -
Richard Koné Queens Park Rangers Ativo 138 / 127 40% 1 24.06.2028 -
Jalen Blesa Oliveirense Ativo 122 / 134 40% 1 22.06.2028 -
James Dornelly Peterborough United Ativo 117 / 109 40% 1 22.06.2028 -
Odin Bailey Stockport County Ativo 119 / 112 40% 1 21.06.2028 -
Ben Wiles Milton Keynes Dons Ativo 126 / 118 40% 1 21.06.2028 -
Kevin Medina Mirandés Ativo 125 / 119 40% 1 15.06.2028 -
Isaac Monnier FC Lorient Ativo 93 / 109 40% 3 02.06.2028 -
Luis Otávio Orlando City Ativo 126 / 131 40% 1 02.06.2028 -
Jason Witsel PSV Ativo 129 / 122 40% 4 01.06.2028 -
Denis Grigorjev Arsenal Tula Ativo 81 / 107 40% 1 01.06.2028 -
Kelian Le Pironnec Mirandés Ativo 105 / 94 40% 6 31.05.2028 -
Olivier Leroux Mouscron Ativo 109 / 107 40% 4 31.05.2028 -
Filippo Manfrin Arzignano Ativo 111 / 113 40% 2 31.05.2028 -
Ludovico Del Sorbo Sorrento Ativo 113 / 133 40% 3 31.05.2028 -
George Hall Port Vale Ativo 123 / 121 40% 1 31.05.2028 -
Aliou Diakité Real Bamako Ativo 111 / 108 40% 1 31.05.2028 -
Maël Monyebe Gazelle Garoua Ativo 97 / 98 40% 2 30.05.2028 -
Ahmed Zaki Masr El Makasa Ativo 80 / 86 40% 1 30.05.2028 -
Frankarlos Benítez Caracas Ativo 131 / 119 40% 2 29.05.2028 -
Josh Nichols Oldham Athletic Ativo 122 / 126 40% 4 28.05.2028 -
Nko Ghangle Rattensi Victoria United Ativo 85 / 88 40% 1 28.05.2028 -
Itumeleng Grobler Free State Stars Ativo 112 / 98 40% 3 27.05.2028 -
Miguel Figueiredo Benfica Ativo 127 / 128 40% 2 27.05.2028 -
Amanuel Pellaers Racing Genk Ativo 83 / 108 40% 2 27.05.2028 -
Máximo Núñez Los Andes Ativo 85 / 99 40% 1 26.05.2028 -
Marius Louër Angers SCO Ativo 104 / 128 40% 1 26.05.2028 -
Anthony Cletus Bendel Insurance Ativo 97 / 99 40% 3 25.05.2028 -
Simone Suppa Virtus Verona Ativo 83 / 99 40% 2 22.05.2028 -
Ousmane Simpara Etoiles du Mande Ativo 97 / 118 40% 2 22.05.2028 -
Pavlo Isenko Universitatea Craiova Ativo 122 / 114 40% 1 22.05.2028 -
Nahuel González Alvarado Ativo 90 / 99 40% 1 22.05.2028 -
Sam Proctor Salford City Ativo 117 / 134 40% 3 20.05.2028 -
Adam Hrdina Zbrojovka Brno Ativo 131 / 121 40% 3 20.05.2028 -
Joe Whitworth Wigan Athletic Ativo 119 / 134 40% 2 19.05.2028 -
Davide Mastrantonio Latina Ativo 102 / 99 40% 1 19.05.2028 -
Kwame Nuhu Heart of Lions Ativo 81 / 86 40% 1 18.05.2028 -
Stanislav Bukatov Salyut Ativo 77 / 92 40% 1 17.05.2028 -
Matúš Sláviček AS Trencin Ativo 121 / 112 40% 1 17.05.2028 -
Andrés Macea Deportivo Pereira Ativo 89 / 104 40% 1 16.05.2028 -
Nicolò Moranduzzo Renate Ativo 95 / 100 40% 2 14.05.2028 -
Andrey Ivlev Nizhniy Novgorod Ativo 129 / 112 40% 2 14.05.2028 -
David Fernande PWD Bamenda Ativo 62 / 64 40% 2 13.05.2028 -
Mateo Albornoz Castellón Ativo 97 / 102 40% 2 11.05.2028 -
Stephen McMullan Fleetwood Town Ativo 97 / 118 40% 2 11.05.2028 -
Ifeanyi Emmanuel Niger Tornadoes Ativo 113 / 120 40% 3 09.05.2028 -
Luca Pausé Groningen Ativo 99 / 112 40% 1 09.05.2028 -
Joel Ezra Enyimba Ativo 113 / 117 40% 2 08.05.2028 -
Roman Zhoglo Birkirkara Ativo 96 / 95 40% 1 08.05.2028 -
Alvin Binsto PWD Bamenda Ativo 102 / 82 40% 1 08.05.2028 -
Amine Boukamir Charleroi Ativo 105 / 112 40% 3 07.05.2028 -
Daniel Banjaqui Benfica Ativo 125 / 131 40% 3 07.05.2028 -
Sergio Barlocco Trento Ativo 126 / 124 40% 3 06.05.2028 -
Aboubacar Meïté Afrique Foot Elite Ativo 89 / 108 40% 2 06.05.2028 -
Mikhail Gaidash Spartak Kostroma Ativo 100 / 102 40% 2 05.05.2028 -
Destiny Geneneke PWD Bamenda Ativo 92 / 100 40% 1 04.05.2028 -
Kamaldeen Atiemo Wa All Stars Ativo 96 / 113 40% 2 03.05.2028 -
Cristian Santander Barranquilla Ativo 132 / 109 40% 2 02.05.2028 -
Leon Borković Irkutsk Ativo 75 / 94 40% 1 02.05.2028 -
Maxim Shichanin Zenit Ativo 99 / 112 40% 4 28.04.2028 -
Matteo Raffaelli Ascoli Ativo 113 / 121 40% 2 28.04.2028 -
Tobías Ramírez River Plate Ativo 131 / 127 40% 1 28.04.2028 -
Konta Ismaily Ativo 99 / 106 40% 3 27.04.2028 -
Robert Cook Accrington Stanley Ativo 108 / 122 40% 1 27.04.2028 -
Luca Martelli Forli Ativo 101 / 91 40% 2 25.04.2028 -
Andy Ezekiel Petrojet Ativo 92 / 105 40% 3 24.04.2028 -
George Evans Exeter City Ativo 121 / 123 40% 2 23.04.2028 -
Facundo Vila Estudiantes Ativo 126 / 127 40% 2 23.04.2028 -
Thijs Kraaijeveld USM Alger Ativo 122 / 129 40% 2 23.04.2028 -
Alessio Insignito Spezia Ativo 108 / 103 40% 1 22.04.2028 -
Gregory Sekyere Aduana Stars Ativo 114 / 83 40% 1 21.04.2028 -
Gael Moreno Morelia Ativo 57 / 87 40% 1 21.04.2028 -
Kubrat Onasci Septemvri Ativo 98 / 109 40% 1 21.04.2028 -
Matthew Rowley Reading Ativo 99 / 96 40% 1 20.04.2028 -
Kamiel Timmermans Anderlecht Ativo 87 / 101 40% 1 19.04.2028 -
Emeka Kelvin Agu Sliema Wanderers Ativo 86 / 96 40% 1 19.04.2028 -
Thato Sibiya Orlando Pirates Ativo 118 / 118 40% 1 19.04.2028 -
Gabriele Baldi Guidonia Montecelio Ativo 106 / 122 40% 2 18.04.2028 -
Bernardo Lima Porto Ativo 100 / 107 40% 2 18.04.2028 -
Lisandro Musso Central Córdoba SdE Ativo 98 / 106 40% 1 18.04.2028 -
Themba Modiba Black Aces Ativo 82 / 88 40% 1 18.04.2028 -
Alejo Medina Agropecuario Argentino Ativo 116 / 113 40% 1 17.04.2028 -
Gladson Amoah Liberty Professionals Ativo 114 / 85 40% 1 16.04.2028 -
Pierre Ikong Dynamo Douala Ativo 77 / 101 40% 1 16.04.2028 -
Ezechiel Djimet AS Algoy Ativo 66 / 77 40% 1 16.04.2028 -
Mate Modric Zadar Ativo 137 / 121 40% 1 15.04.2028 -
Nour Ashraf ENPPI Ativo 91 / 89 40% 1 15.04.2028 -
Matvey Bardachev Zenit Ativo 94 / 103 40% 2 14.04.2028 -
Riquelme Thompson-Jones Accrington Stanley Ativo 107 / 108 40% 2 13.04.2028 -
Filip Marschall Stevenage Ativo 118 / 135 40% 2 13.04.2028 -
Augusto Bando Ascoli Ativo 101 / 110 40% 1 11.04.2028 -
Killian Cahill Leyton Orient Ativo 118 / 106 40% 2 10.04.2028 -
Artem Nosachev Spartak Moscow Ativo 79 / 70 40% 1 10.04.2028 -
Andrea Sergio Mazza Giana Erminio Ativo 98 / 100 40% 3 09.04.2028 -
Marc Colin Tours Ativo 121 / 118 40% 1 08.04.2028 -
Zoltan Kleinheisler Haladas Ativo 110 / 106 40% 1 07.04.2028 -
Claudio Martey Pianese Ativo 85 / 99 40% 1 06.04.2028 -
Jack Wint Sibenik Ativo 88 / 91 40% 1 06.04.2028 -
Diego Bolaños Veracruz Ativo 81 / 105 40% 1 05.04.2028 -
Martim Cunha Porto Ativo 115 / 102 40% 1 03.04.2028 -
Ali Ishaku Abia Warriors Ativo 109 / 118 40% 1 31.03.2028 -
Tyler Fletcher Rotherham United Ativo 101 / 107 40% 3 29.03.2028 -
Stefan Mitrović Zeleznicar Pancevo Ativo 103 / 82 40% 1 25.03.2028 -
Ismaël Fansu Unisport Bafang Ativo 73 / 83 40% 2 24.03.2028 -
Idrissa Sabaly Valenciennes Ativo 88 / 115 40% 2 24.03.2028 -
Khama Mabunda Platinum Stars Ativo 83 / 69 40% 2 23.03.2028 -
Ahmat Doungous Gazelle Ativo 44 / 56 40% 1 23.03.2028 -
Jakub Badžgoň MSK Zilina Ativo 104 / 116 40% 1 22.03.2028 -
Lior Mashansky Foullah Edifice Ativo 64 / 58 40% 2 21.03.2028 -
Ahmat Abba AS Etat Major Ativo 75 / 58 40% 1 21.03.2028 -
Ronan Kpakio AC Milan Ativo 134 / 134 40% 1 20.03.2028 -
Nikita Yanovich Tyumen Ativo 116 / 89 40% 1 19.03.2028 -
Dmitry Loktev Rotor Ativo 49 / 46 40% 1 18.03.2028 -
Antonino Viola Catania Ativo 112 / 108 40% 1 16.03.2028 -
Alain Zadi Sarpsborg 08 Ativo 101 / 101 40% 1 16.03.2028 -
James Tendoh Canon Yaounde Ativo 82 / 73 40% 1 16.03.2028 -
Tobiáš Pališčák Zlin Ativo 101 / 123 40% 1 06.03.2028 -
Isaías Silva Miramar Misiones Ativo 74 / 101 40% 2 31.12.2027 -
David Damboama El-Kanemi Warriors Ativo 79 / 85 40% 3 31.12.2027 -
Olaniyi Saheed Kwara United Ativo 87 / 98 40% 1 27.12.2027 -
Lucas Nicol Mjondalen Ativo 79 / 89 40% 2 26.12.2027 -
Esquerdinha Notts County Ativo 126 / 137 40% 3 26.12.2027 -
Melvin Vučenović Persson Atvidaberg Ativo 85 / 95 40% 3 25.12.2027 -
Francisco Machis Llaneros Ativo 93 / 101 40% 2 24.12.2027 -
Lucas Camejo River Plate Ativo 70 / 105 40% 5 20.12.2027 -
Tiago Gordillo San Miguel Ativo 94 / 105 40% 2 15.12.2027 -
Onyeuche Ujunwa Ikorodu City Ativo 86 / 107 40% 6 14.12.2027 -
Hosea Michael Remo Stars Ativo 101 / 94 40% 3 12.12.2027 -
Ivan Borges Defensores Ativo 85 / 106 40% 5 09.12.2027 -
Nazareno Roselli Defensa y Justicia Ativo 116 / 121 40% 1 09.12.2027 -
Yury Oyarzo Racing Ativo 98 / 108 40% 1 06.12.2027 -
Godswill Kenu Bayelsa United Ativo 67 / 80 40% 1 06.12.2027 -
Nicolas Sport Recife Ativo 100 / 124 40% 1 03.12.2027 -
Bogard Agbor PWD Bamenda Ativo 65 / 86 40% 1 30.11.2027 -
Juan Camilo Córdoba Deportivo Pereira Ativo 81 / 104 40% 1 29.11.2027 -
Agustín Obregón River Plate Ativo 126 / 119 40% 2 21.11.2027 -
Mohamed Moussa Koïta Mathare United Ativo 110 / 113 40% 1 21.11.2027 -
Mohammed Habib Sarwari Kariobangi Sharks Ativo 57 / 67 40% 1 12.11.2027 -
Matys Donavin AC Ajaccio Ativo 93 / 103 40% 1 09.11.2027 -
Ignacio Fernández Boston River Ativo 97 / 102 40% 1 08.11.2027 -
Daniel Idoko Ikorodu City Ativo 89 / 100 40% 2 05.11.2027 -
Idriss Ashiru Kariobangi Sharks Ativo 60 / 72 40% 2 04.11.2027 -
Nahuel Leivas Montevideo City Torque Ativo 114 / 104 40% 1 04.11.2027 -
Adrian Skogmar Malmo FF Ativo 122 / 107 40% 1 19.10.2027 -
Juan Diego Perdomo Depor Ativo 95 / 107 40% 2 18.10.2027 -
Esteban de Lima Tacuarembo Ativo 99 / 111 40% 1 17.10.2027 -
Fallou Fall Olympique Lyonnais Ativo 97 / 89 58% 1 21.06.2027 -
Georges Gomis Le Havre AC Ativo 102 / 120 58% 1 14.06.2027 -
Rocco Vata Watford Ativo 128 / 135 40% 1 31.12.2026 -